sensor_id;sensor_type;location;lat;lon;timestamp;P1;durP1;ratioP1;P2;durP2;ratioP2
8476;SDS011;4275;42.854;23.222;2023-11-21T00:53:06;9.70;;;9.40;;
8476;SDS011;4275;42.854;23.222;2023-11-21T00:55:34;9.90;;;9.60;;
8476;SDS011;4275;42.854;23.222;2023-11-21T00:58:04;10.00;;;9.70;;
8476;SDS011;4275;42.854;23.222;2023-11-21T01:00:34;10.20;;;9.90;;
8476;SDS011;4275;42.854;23.222;2023-11-21T01:03:07;10.67;;;10.37;;
8476;SDS011;4275;42.854;23.222;2023-11-21T01:05:34;9.57;;;9.27;;
8476;SDS011;4275;42.854;23.222;2023-11-21T01:08:08;10.37;;;10.07;;
8476;SDS011;4275;42.854;23.222;2023-11-21T01:10:36;10.40;;;10.10;;
8476;SDS011;4275;42.854;23.222;2023-11-21T01:13:05;10.03;;;9.73;;
8476;SDS011;4275;42.854;23.222;2023-11-21T01:15:34;9.70;;;9.40;;
8476;SDS011;4275;42.854;23.222;2023-11-21T01:18:07;9.10;;;8.90;;
8476;SDS011;4275;42.854;23.222;2023-11-21T02:14:22;8.90;;;8.70;;
8476;SDS011;4275;42.854;23.222;2023-11-21T02:16:50;8.57;;;8.37;;
8476;SDS011;4275;42.854;23.222;2023-11-21T02:22:38;8.50;;;8.30;;
8476;SDS011;4275;42.854;23.222;2023-11-21T02:25:08;8.77;;;8.57;;
8476;SDS011;4275;42.854;23.222;2023-11-21T02:27:36;8.60;;;8.40;;
8476;SDS011;4275;42.854;23.222;2023-11-21T02:30:03;8.50;;;8.30;;
8476;SDS011;4275;42.854;23.222;2023-11-21T02:32:32;8.50;;;8.30;;
8476;SDS011;4275;42.854;23.222;2023-11-21T02:35:03;8.70;;;8.50;;
8476;SDS011;4275;42.854;23.222;2023-11-21T02:37:33;8.90;;;8.70;;
8476;SDS011;4275;42.854;23.222;2023-11-21T02:40:00;8.90;;;8.70;;
8476;SDS011;4275;42.854;23.222;2023-11-21T02:42:30;9.30;;;9.00;;
8476;SDS011;4275;42.854;23.222;2023-11-21T02:44:58;9.60;;;9.30;;
8476;SDS011;4275;42.854;23.222;2023-11-21T02:47:25;9.90;;;9.60;;
8476;SDS011;4275;42.854;23.222;2023-11-21T02:49:52;9.70;;;9.40;;
8476;SDS011;4275;42.854;23.222;2023-11-21T02:52:19;8.73;;;8.53;;
8476;SDS011;4275;42.854;23.222;2023-11-21T02:54:48;8.17;;;7.97;;
8476;SDS011;4275;42.854;23.222;2023-11-21T02:57:18;8.80;;;8.60;;
8476;SDS011;4275;42.854;23.222;2023-11-21T02:59:50;9.37;;;9.07;;
8476;SDS011;4275;42.854;23.222;2023-11-21T03:02:19;8.90;;;8.70;;
8476;SDS011;4275;42.854;23.222;2023-11-21T03:04:50;9.07;;;8.83;;
8476;SDS011;4275;42.854;23.222;2023-11-21T03:07:19;8.30;;;8.10;;
8476;SDS011;4275;42.854;23.222;2023-11-21T03:09:50;8.10;;;7.90;;
8476;SDS011;4275;42.854;23.222;2023-11-21T03:12:23;7.93;;;7.73;;
8476;SDS011;4275;42.854;23.222;2023-11-21T03:14:52;7.60;;;7.40;;
8476;SDS011;4275;42.854;23.222;2023-11-21T03:17:20;7.63;;;7.43;;
8476;SDS011;4275;42.854;23.222;2023-11-21T03:23:09;8.70;;;8.50;;
8476;SDS011;4275;42.854;23.222;2023-11-21T03:25:36;7.20;;;7.00;;
8476;SDS011;4275;42.854;23.222;2023-11-21T03:28:03;7.00;;;6.80;;
8476;SDS011;4275;42.854;23.222;2023-11-21T03:30:32;10.97;;;10.67;;
8476;SDS011;4275;42.854;23.222;2023-11-21T03:32:59;9.47;;;9.27;;
8476;SDS011;4275;42.854;23.222;2023-11-21T03:35:26;6.83;;;6.63;;
8476;SDS011;4275;42.854;23.222;2023-11-21T03:37:54;9.70;;;9.40;;
8476;SDS011;4275;42.854;23.222;2023-11-21T03:40:21;8.50;;;8.30;;
8476;SDS011;4275;42.854;23.222;2023-11-21T03:42:49;7.50;;;7.30;;
8476;SDS011;4275;42.854;23.222;2023-11-21T03:45:28;8.17;;;7.97;;
8476;SDS011;4275;42.854;23.222;2023-11-21T03:47:57;9.27;;;9.07;;
8476;SDS011;4275;42.854;23.222;2023-11-21T03:50:26;10.17;;;9.87;;
8476;SDS011;4275;42.854;23.222;2023-11-21T03:52:53;10.30;;;10.00;;
8476;SDS011;4275;42.854;23.222;2023-11-21T03:55:20;10.17;;;9.87;;
8476;SDS011;4275;42.854;23.222;2023-11-21T03:57:48;9.40;;;9.10;;
8476;SDS011;4275;42.854;23.222;2023-11-21T04:00:16;7.53;;;7.33;;
8476;SDS011;4275;42.854;23.222;2023-11-21T04:06:14;10.40;;;10.10;;
8476;SDS011;4275;42.854;23.222;2023-11-21T04:08:42;10.13;;;9.83;;
8476;SDS011;4275;42.854;23.222;2023-11-21T04:17:29;8.63;;;8.43;;
8476;SDS011;4275;42.854;23.222;2023-11-21T04:19:57;9.40;;;9.10;;
8476;SDS011;4275;42.854;23.222;2023-11-21T04:22:29;10.60;;;10.30;;
8476;SDS011;4275;42.854;23.222;2023-11-21T04:25:08;10.10;;;9.80;;
8476;SDS011;4275;42.854;23.222;2023-11-21T04:27:40;9.50;;;9.20;;
8476;SDS011;4275;42.854;23.222;2023-11-21T04:30:14;10.17;;;9.87;;
8476;SDS011;4275;42.854;23.222;2023-11-21T04:32:45;9.00;;;8.80;;
8476;SDS011;4275;42.854;23.222;2023-11-21T04:35:19;8.60;;;8.40;;
8476;SDS011;4275;42.854;23.222;2023-11-21T04:37:53;8.80;;;8.60;;
8476;SDS011;4275;42.854;23.222;2023-11-21T04:40:26;7.23;;;7.03;;
8476;SDS011;4275;42.854;23.222;2023-11-21T04:42:57;7.07;;;6.87;;
8476;SDS011;4275;42.854;23.222;2023-11-21T04:45:25;7.80;;;7.60;;
8476;SDS011;4275;42.854;23.222;2023-11-21T04:47:51;7.50;;;7.30;;
8476;SDS011;4275;42.854;23.222;2023-11-21T04:50:19;7.40;;;7.20;;
8476;SDS011;4275;42.854;23.222;2023-11-21T04:52:45;8.07;;;7.87;;
8476;SDS011;4275;42.854;23.222;2023-11-21T04:55:14;10.80;;;10.50;;
8476;SDS011;4275;42.854;23.222;2023-11-21T04:57:41;11.20;;;10.90;;
8476;SDS011;4275;42.854;23.222;2023-11-21T05:00:09;10.90;;;10.60;;
8476;SDS011;4275;42.854;23.222;2023-11-21T05:02:37;9.70;;;9.40;;
8476;SDS011;4275;42.854;23.222;2023-11-21T05:05:05;11.00;;;10.70;;
8476;SDS011;4275;42.854;23.222;2023-11-21T05:07:33;10.83;;;10.53;;
8476;SDS011;4275;42.854;23.222;2023-11-21T05:10:01;10.20;;;9.90;;
8476;SDS011;4275;42.854;23.222;2023-11-21T05:12:32;9.23;;;8.93;;
8476;SDS011;4275;42.854;23.222;2023-11-21T05:15:00;8.77;;;8.57;;
8476;SDS011;4275;42.854;23.222;2023-11-21T05:17:28;8.80;;;8.60;;
8476;SDS011;4275;42.854;23.222;2023-11-21T05:19:58;9.70;;;9.40;;
8476;SDS011;4275;42.854;23.222;2023-11-21T05:22:26;8.30;;;8.10;;
8476;SDS011;4275;42.854;23.222;2023-11-21T05:24:53;8.80;;;8.60;;
8476;SDS011;4275;42.854;23.222;2023-11-21T05:27:19;8.70;;;8.50;;
8476;SDS011;4275;42.854;23.222;2023-11-21T05:29:48;9.20;;;8.90;;
8476;SDS011;4275;42.854;23.222;2023-11-21T05:32:15;8.57;;;8.37;;
8476;SDS011;4275;42.854;23.222;2023-11-21T05:34:42;7.90;;;7.70;;
8476;SDS011;4275;42.854;23.222;2023-11-21T05:37:09;7.13;;;6.93;;
8476;SDS011;4275;42.854;23.222;2023-11-21T05:39:36;8.60;;;8.40;;
8476;SDS011;4275;42.854;23.222;2023-11-21T05:42:03;8.40;;;8.20;;
8476;SDS011;4275;42.854;23.222;2023-11-21T05:44:31;7.93;;;7.73;;
8476;SDS011;4275;42.854;23.222;2023-11-21T05:47:01;7.40;;;7.20;;
8476;SDS011;4275;42.854;23.222;2023-11-21T05:49:28;7.90;;;7.70;;
8476;SDS011;4275;42.854;23.222;2023-11-21T05:51:58;8.70;;;8.50;;
8476;SDS011;4275;42.854;23.222;2023-11-21T05:54:25;8.50;;;8.30;;
8476;SDS011;4275;42.854;23.222;2023-11-21T05:56:52;8.80;;;8.53;;
8476;SDS011;4275;42.854;23.222;2023-11-21T05:59:19;8.43;;;8.23;;
8476;SDS011;4275;42.854;23.222;2023-11-21T06:01:46;8.33;;;8.13;;
8476;SDS011;4275;42.854;23.222;2023-11-21T06:04:15;8.00;;;7.80;;
8476;SDS011;4275;42.854;23.222;2023-11-21T06:06:43;8.90;;;8.60;;
8476;SDS011;4275;42.854;23.222;2023-11-21T06:09:10;7.53;;;7.33;;
8476;SDS011;4275;42.854;23.222;2023-11-21T06:11:38;7.67;;;7.47;;
8476;SDS011;4275;42.854;23.222;2023-11-21T06:14:05;6.70;;;6.50;;
8476;SDS011;4275;42.854;23.222;2023-11-21T06:16:34;8.20;;;8.00;;
8476;SDS011;4275;42.854;23.222;2023-11-21T06:19:01;8.87;;;8.67;;
8476;SDS011;4275;42.854;23.222;2023-11-21T06:21:32;8.40;;;8.20;;
8476;SDS011;4275;42.854;23.222;2023-11-21T06:23:59;8.70;;;8.50;;
8476;SDS011;4275;42.854;23.222;2023-11-21T06:26:26;7.83;;;7.63;;
8476;SDS011;4275;42.854;23.222;2023-11-21T06:28:53;8.77;;;8.57;;
8476;SDS011;4275;42.854;23.222;2023-11-21T06:31:23;8.70;;;8.50;;
8476;SDS011;4275;42.854;23.222;2023-11-21T06:33:50;7.30;;;7.10;;
8476;SDS011;4275;42.854;23.222;2023-11-21T06:36:18;7.00;;;6.80;;
8476;SDS011;4275;42.854;23.222;2023-11-21T06:38:46;6.20;;;6.10;;
8476;SDS011;4275;42.854;23.222;2023-11-21T06:41:13;6.87;;;6.67;;
8476;SDS011;4275;42.854;23.222;2023-11-21T06:43:41;7.87;;;7.67;;
8476;SDS011;4275;42.854;23.222;2023-11-21T06:46:11;8.20;;;8.00;;
8476;SDS011;4275;42.854;23.222;2023-11-21T06:48:40;7.27;;;7.07;;
8476;SDS011;4275;42.854;23.222;2023-11-21T06:51:08;9.20;;;9.00;;
8476;SDS011;4275;42.854;23.222;2023-11-21T06:53:36;10.10;;;9.80;;
8476;SDS011;4275;42.854;23.222;2023-11-21T06:56:05;10.50;;;10.20;;
8476;SDS011;4275;42.854;23.222;2023-11-21T06:58:42;11.00;;;10.70;;
8476;SDS011;4275;42.854;23.222;2023-11-21T07:01:10;12.57;;;12.20;;
8476;SDS011;4275;42.854;23.222;2023-11-21T07:03:37;12.10;;;11.70;;
8476;SDS011;4275;42.854;23.222;2023-11-21T07:06:05;12.10;;;11.70;;
8476;SDS011;4275;42.854;23.222;2023-11-21T07:08:32;12.33;;;11.93;;
8476;SDS011;4275;42.854;23.222;2023-11-21T07:11:00;12.10;;;11.70;;
8476;SDS011;4275;42.854;23.222;2023-11-21T07:13:29;12.20;;;11.80;;
8476;SDS011;4275;42.854;23.222;2023-11-21T07:15:57;13.50;;;13.10;;
8476;SDS011;4275;42.854;23.222;2023-11-21T07:18:24;13.67;;;13.17;;
8476;SDS011;4275;42.854;23.222;2023-11-21T07:20:51;14.07;;;13.57;;
8476;SDS011;4275;42.854;23.222;2023-11-21T07:23:18;13.83;;;13.33;;
8476;SDS011;4275;42.854;23.222;2023-11-21T07:25:48;16.20;;;15.70;;
8476;SDS011;4275;42.854;23.222;2023-11-21T07:28:15;17.63;;;17.03;;
8476;SDS011;4275;42.854;23.222;2023-11-21T07:30:43;15.97;;;15.37;;
8476;SDS011;4275;42.854;23.222;2023-11-21T07:33:10;16.87;;;16.17;;
8476;SDS011;4275;42.854;23.222;2023-11-21T07:35:37;15.93;;;15.33;;
8476;SDS011;4275;42.854;23.222;2023-11-21T07:38:04;18.30;;;17.50;;
8476;SDS011;4275;42.854;23.222;2023-11-21T07:40:31;18.70;;;17.90;;
8476;SDS011;4275;42.854;23.222;2023-11-21T07:42:58;16.03;;;15.43;;
8476;SDS011;4275;42.854;23.222;2023-11-21T07:45:25;16.73;;;16.03;;
8476;SDS011;4275;42.854;23.222;2023-11-21T07:47:54;19.40;;;18.60;;
8476;SDS011;4275;42.854;23.222;2023-11-21T07:50:21;20.40;;;19.50;;
8476;SDS011;4275;42.854;23.222;2023-11-21T07:52:48;19.10;;;18.30;;
8476;SDS011;4275;42.854;23.222;2023-11-21T07:55:16;20.23;;;19.30;;
8476;SDS011;4275;42.854;23.222;2023-11-21T07:57:43;20.40;;;19.40;;
8476;SDS011;4275;42.854;23.222;2023-11-21T08:00:11;20.97;;;19.97;;
8476;SDS011;4275;42.854;23.222;2023-11-21T08:02:41;16.67;;;15.87;;
8476;SDS011;4275;42.854;23.222;2023-11-21T08:05:13;19.90;;;18.90;;
8476;SDS011;4275;42.854;23.222;2023-11-21T08:07:41;21.37;;;20.27;;
8476;SDS011;4275;42.854;23.222;2023-11-21T08:10:08;19.87;;;18.87;;
8476;SDS011;4275;42.854;23.222;2023-11-21T08:12:36;20.73;;;19.73;;
8476;SDS011;4275;42.854;23.222;2023-11-21T08:15:04;16.03;;;15.20;;
8476;SDS011;4275;42.854;23.222;2023-11-21T08:17:32;15.60;;;14.90;;
8476;SDS011;4275;42.854;23.222;2023-11-21T08:20:00;17.60;;;16.80;;
8476;SDS011;4275;42.854;23.222;2023-11-21T08:22:30;16.90;;;16.20;;
8476;SDS011;4275;42.854;23.222;2023-11-21T08:24:57;16.73;;;16.10;;
8476;SDS011;4275;42.854;23.222;2023-11-21T08:27:24;13.67;;;13.07;;
8476;SDS011;4275;42.854;23.222;2023-11-21T08:29:51;16.53;;;15.83;;
8476;SDS011;4275;42.854;23.222;2023-11-21T08:32:18;15.30;;;14.80;;
8476;SDS011;4275;42.854;23.222;2023-11-21T08:34:45;15.90;;;15.30;;
8476;SDS011;4275;42.854;23.222;2023-11-21T08:37:15;13.00;;;12.50;;
8476;SDS011;4275;42.854;23.222;2023-11-21T08:39:44;13.00;;;12.50;;
8476;SDS011;4275;42.854;23.222;2023-11-21T08:42:11;15.53;;;14.93;;
8476;SDS011;4275;42.854;23.222;2023-11-21T08:44:38;15.77;;;15.17;;
8476;SDS011;4275;42.854;23.222;2023-11-21T08:47:05;16.43;;;15.73;;
8476;SDS011;4275;42.854;23.222;2023-11-21T08:49:32;14.20;;;13.63;;
8476;SDS011;4275;42.854;23.222;2023-11-21T08:51:59;14.70;;;14.10;;
8476;SDS011;4275;42.854;23.222;2023-11-21T08:54:26;18.90;;;18.10;;
8476;SDS011;4275;42.854;23.222;2023-11-21T08:56:55;19.00;;;18.10;;
8476;SDS011;4275;42.854;23.222;2023-11-21T08:59:23;19.70;;;18.80;;
8476;SDS011;4275;42.854;23.222;2023-11-21T09:01:50;15.37;;;14.67;;
8476;SDS011;4275;42.854;23.222;2023-11-21T09:04:17;16.60;;;15.80;;
8476;SDS011;4275;42.854;23.222;2023-11-21T09:06:44;18.73;;;17.93;;
8476;SDS011;4275;42.854;23.222;2023-11-21T09:09:11;18.58;;;17.58;;
8476;SDS011;4275;42.854;23.222;2023-11-21T09:11:39;16.30;;;15.50;;
8476;SDS011;4275;42.854;23.222;2023-11-21T09:14:07;17.10;;;16.20;;
8476;SDS011;4275;42.854;23.222;2023-11-21T09:16:35;19.23;;;18.23;;
8476;SDS011;4275;42.854;23.222;2023-11-21T09:19:02;19.37;;;18.37;;
8476;SDS011;4275;42.854;23.222;2023-11-21T09:21:30;16.23;;;15.33;;
8476;SDS011;4275;42.854;23.222;2023-11-21T09:23:58;16.30;;;15.40;;
8476;SDS011;4275;42.854;23.222;2023-11-21T09:26:25;18.90;;;17.90;;
8476;SDS011;4275;42.854;23.222;2023-11-21T09:28:52;20.00;;;19.00;;
8476;SDS011;4275;42.854;23.222;2023-11-21T09:31:20;19.90;;;18.80;;
8476;SDS011;4275;42.854;23.222;2023-11-21T09:33:48;15.67;;;14.87;;
8476;SDS011;4275;42.854;23.222;2023-11-21T09:36:14;15.80;;;15.00;;
8476;SDS011;4275;42.854;23.222;2023-11-21T09:38:41;19.13;;;18.13;;
8476;SDS011;4275;42.854;23.222;2023-11-21T09:41:10;21.73;;;20.67;;
8476;SDS011;4275;42.854;23.222;2023-11-21T09:43:44;31.35;;;29.65;;
8476;SDS011;4275;42.854;23.222;2023-11-21T09:46:13;16.20;;;15.30;;
8476;SDS011;4275;42.854;23.222;2023-11-21T09:48:47;20.30;;;19.20;;
8476;SDS011;4275;42.854;23.222;2023-11-21T09:51:18;20.40;;;19.30;;
8476;SDS011;4275;42.854;23.222;2023-11-21T09:53:48;20.80;;;19.70;;
8476;SDS011;4275;42.854;23.222;2023-11-21T09:56:18;16.43;;;15.57;;
8476;SDS011;4275;42.854;23.222;2023-11-21T09:58:50;16.63;;;15.83;;
8476;SDS011;4275;42.854;23.222;2023-11-21T10:01:18;20.30;;;19.30;;
8476;SDS011;4275;42.854;23.222;2023-11-21T10:03:55;20.40;;;19.40;;
8476;SDS011;4275;42.854;23.222;2023-11-21T10:09:49;18.13;;;17.03;;
8476;SDS011;4275;42.854;23.222;2023-11-21T10:12:17;19.33;;;18.33;;
8476;SDS011;4275;42.854;23.222;2023-11-21T10:14:47;22.45;;;21.15;;
8476;SDS011;4275;42.854;23.222;2023-11-21T10:17:15;17.20;;;16.20;;
8476;SDS011;4275;42.854;23.222;2023-11-21T10:19:46;17.10;;;16.10;;
8476;SDS011;4275;42.854;23.222;2023-11-21T10:22:13;19.63;;;18.63;;
8476;SDS011;4275;42.854;23.222;2023-11-21T10:24:42;19.60;;;18.60;;
8476;SDS011;4275;42.854;23.222;2023-11-21T10:27:09;30.30;;;28.60;;
8476;SDS011;4275;42.854;23.222;2023-11-21T10:29:36;20.35;;;19.25;;
8476;SDS011;4275;42.854;23.222;2023-11-21T10:32:04;19.98;;;18.88;;
8476;SDS011;4275;42.854;23.222;2023-11-21T10:34:32;17.58;;;16.60;;
8476;SDS011;4275;42.854;23.222;2023-11-21T10:37:02;17.73;;;16.67;;
8476;SDS011;4275;42.854;23.222;2023-11-21T10:39:38;19.13;;;18.02;;
8476;SDS011;4275;42.854;23.222;2023-11-21T10:42:07;21.15;;;19.95;;
8476;SDS011;4275;42.854;23.222;2023-11-21T10:44:35;17.95;;;16.85;;
8476;SDS011;4275;42.854;23.222;2023-11-21T10:47:03;22.63;;;21.23;;
8476;SDS011;4275;42.854;23.222;2023-11-21T10:49:30;20.10;;;19.00;;
8476;SDS011;4275;42.854;23.222;2023-11-21T10:51:59;19.90;;;18.80;;
8476;SDS011;4275;42.854;23.222;2023-11-21T10:54:43;21.17;;;19.98;;
8476;SDS011;4275;42.854;23.222;2023-11-21T10:57:10;20.67;;;19.58;;
8476;SDS011;4275;42.854;23.222;2023-11-21T10:59:40;17.38;;;16.48;;
8476;SDS011;4275;42.854;23.222;2023-11-21T11:02:12;18.10;;;17.20;;
8476;SDS011;4275;42.854;23.222;2023-11-21T11:04:48;19.00;;;18.10;;
8476;SDS011;4275;42.854;23.222;2023-11-21T11:07:17;21.08;;;20.08;;
8476;SDS011;4275;42.854;23.222;2023-11-21T11:09:47;16.38;;;15.65;;
8476;SDS011;4275;42.854;23.222;2023-11-21T11:12:14;19.17;;;18.27;;
8476;SDS011;4275;42.854;23.222;2023-11-21T11:14:42;20.50;;;19.60;;
8476;SDS011;4275;42.854;23.222;2023-11-21T11:17:10;18.15;;;17.35;;
8476;SDS011;4275;42.854;23.222;2023-11-21T11:19:37;17.53;;;16.73;;
8476;SDS011;4275;42.854;23.222;2023-11-21T11:22:07;18.30;;;17.40;;
8476;SDS011;4275;42.854;23.222;2023-11-21T11:24:52;17.90;;;17.00;;
8476;SDS011;4275;42.854;23.222;2023-11-21T11:27:48;20.13;;;19.13;;
8476;SDS011;4275;42.854;23.222;2023-11-21T11:30:38;17.33;;;16.42;;
8476;SDS011;4275;42.854;23.222;2023-11-21T11:33:14;19.15;;;18.15;;
8476;SDS011;4275;42.854;23.222;2023-11-21T11:35:52;19.30;;;18.30;;
8476;SDS011;4275;42.854;23.222;2023-11-21T11:38:31;28.58;;;27.17;;
8476;SDS011;4275;42.854;23.222;2023-11-21T11:41:01;20.50;;;19.50;;
8476;SDS011;4275;42.854;23.222;2023-11-21T11:43:29;20.70;;;19.70;;
8476;SDS011;4275;42.854;23.222;2023-11-21T11:45:58;18.53;;;17.73;;
8476;SDS011;4275;42.854;23.222;2023-11-21T11:48:28;19.30;;;18.40;;
8476;SDS011;4275;42.854;23.222;2023-11-21T11:51:03;17.80;;;17.00;;
8476;SDS011;4275;42.854;23.222;2023-11-21T11:53:37;19.10;;;18.20;;
8476;SDS011;4275;42.854;23.222;2023-11-21T11:56:24;19.40;;;18.50;;
8476;SDS011;4275;42.854;23.222;2023-11-21T11:58:54;19.70;;;18.80;;
8476;SDS011;4275;42.854;23.222;2023-11-21T12:01:38;21.37;;;20.40;;
8476;SDS011;4275;42.854;23.222;2023-11-21T12:04:23;22.93;;;21.83;;
8476;SDS011;4275;42.854;23.222;2023-11-21T12:06:59;25.80;;;24.40;;
8476;SDS011;4275;42.854;23.222;2023-11-21T12:09:28;27.10;;;25.77;;
8476;SDS011;4275;42.854;23.222;2023-11-21T12:15:20;23.03;;;21.93;;
8476;SDS011;4275;42.854;23.222;2023-11-21T12:17:47;20.97;;;19.97;;
8476;SDS011;4275;42.854;23.222;2023-11-21T12:20:18;19.87;;;18.93;;
8476;SDS011;4275;42.854;23.222;2023-11-21T12:22:46;19.63;;;18.73;;
8476;SDS011;4275;42.854;23.222;2023-11-21T12:25:17;19.27;;;18.27;;
8476;SDS011;4275;42.854;23.222;2023-11-21T12:27:45;21.23;;;20.23;;
8476;SDS011;4275;42.854;23.222;2023-11-21T12:30:14;19.90;;;18.90;;
8476;SDS011;4275;42.854;23.222;2023-11-21T12:32:44;21.10;;;20.00;;
8476;SDS011;4275;42.854;23.222;2023-11-21T12:35:15;20.17;;;19.07;;
8476;SDS011;4275;42.854;23.222;2023-11-21T12:37:44;19.93;;;18.93;;
8476;SDS011;4275;42.854;23.222;2023-11-21T12:40:12;18.23;;;17.43;;
8476;SDS011;4275;42.854;23.222;2023-11-21T12:42:40;17.63;;;16.83;;
8476;SDS011;4275;42.854;23.222;2023-11-21T12:45:09;18.63;;;17.73;;
8476;SDS011;4275;42.854;23.222;2023-11-21T12:47:47;17.83;;;17.03;;
8476;SDS011;4275;42.854;23.222;2023-11-21T12:50:15;17.30;;;16.50;;
8476;SDS011;4275;42.854;23.222;2023-11-21T12:52:48;17.20;;;16.40;;
8476;SDS011;4275;42.854;23.222;2023-11-21T12:55:18;17.77;;;16.97;;
8476;SDS011;4275;42.854;23.222;2023-11-21T12:57:47;18.20;;;17.40;;
8476;SDS011;4275;42.854;23.222;2023-11-21T13:00:17;19.07;;;18.17;;
8476;SDS011;4275;42.854;23.222;2023-11-21T13:02:54;20.03;;;19.00;;
8476;SDS011;4275;42.854;23.222;2023-11-21T13:05:24;20.10;;;19.10;;
8476;SDS011;4275;42.854;23.222;2023-11-21T13:07:51;21.67;;;20.53;;
8476;SDS011;4275;42.854;23.222;2023-11-21T13:10:20;20.87;;;19.73;;
8476;SDS011;4275;42.854;23.222;2023-11-21T13:12:51;21.33;;;20.23;;
8476;SDS011;4275;42.854;23.222;2023-11-21T13:15:20;25.63;;;24.23;;
8476;SDS011;4275;42.854;23.222;2023-11-21T13:17:47;27.00;;;25.50;;
8476;SDS011;4275;42.854;23.222;2023-11-21T13:20:17;25.50;;;24.10;;
8476;SDS011;4275;42.854;23.222;2023-11-21T13:22:46;25.17;;;23.77;;
8476;SDS011;4275;42.854;23.222;2023-11-21T13:25:15;27.80;;;26.20;;
8476;SDS011;4275;42.854;23.222;2023-11-21T13:27:45;27.30;;;25.70;;
8476;SDS011;4275;42.854;23.222;2023-11-21T13:30:13;23.93;;;22.53;;
8476;SDS011;4275;42.854;23.222;2023-11-21T13:32:46;22.43;;;21.23;;
8476;SDS011;4275;42.854;23.222;2023-11-21T14:05:07;17.67;;;16.87;;
8476;SDS011;4275;42.854;23.222;2023-11-21T14:07:59;19.50;;;18.60;;
8476;SDS011;4275;42.854;23.222;2023-11-21T14:10:30;17.90;;;17.10;;
8476;SDS011;4275;42.854;23.222;2023-11-21T14:13:05;17.03;;;16.33;;
8476;SDS011;4275;42.854;23.222;2023-11-21T14:15:32;16.37;;;15.67;;
8476;SDS011;4275;42.854;23.222;2023-11-21T14:18:05;15.53;;;14.93;;
8476;SDS011;4275;42.854;23.222;2023-11-21T14:20:35;15.90;;;15.30;;
8476;SDS011;4275;42.854;23.222;2023-11-21T14:23:02;15.60;;;15.00;;
8476;SDS011;4275;42.854;23.222;2023-11-21T14:25:31;14.37;;;13.87;;
8476;SDS011;4275;42.854;23.222;2023-11-21T14:27:58;13.73;;;13.23;;
8476;SDS011;4275;42.854;23.222;2023-11-21T14:30:26;14.27;;;13.77;;
8476;SDS011;4275;42.854;23.222;2023-11-21T14:32:54;14.40;;;13.90;;
8476;SDS011;4275;42.854;23.222;2023-11-21T14:35:22;14.33;;;13.83;;
8476;SDS011;4275;42.854;23.222;2023-11-21T14:37:49;14.47;;;13.97;;
8476;SDS011;4275;42.854;23.222;2023-11-21T14:40:16;13.07;;;12.67;;
8476;SDS011;4275;42.854;23.222;2023-11-21T14:42:47;13.40;;;12.90;;
8476;SDS011;4275;42.854;23.222;2023-11-21T14:45:18;13.70;;;13.20;;
8476;SDS011;4275;42.854;23.222;2023-11-21T14:47:45;12.70;;;12.30;;
8476;SDS011;4275;42.854;23.222;2023-11-21T14:50:18;12.97;;;12.57;;
8476;SDS011;4275;42.854;23.222;2023-11-21T14:53:04;13.00;;;12.60;;
8476;SDS011;4275;42.854;23.222;2023-11-21T14:55:31;12.63;;;12.23;;
8476;SDS011;4275;42.854;23.222;2023-11-21T14:58:04;12.50;;;12.10;;
8476;SDS011;4275;42.854;23.222;2023-11-21T15:00:36;11.70;;;11.30;;
8476;SDS011;4275;42.854;23.222;2023-11-21T15:03:09;13.00;;;12.60;;
8476;SDS011;4275;42.854;23.222;2023-11-21T15:05:48;13.50;;;13.10;;
8476;SDS011;4275;42.854;23.222;2023-11-21T15:08:15;13.50;;;13.00;;
8476;SDS011;4275;42.854;23.222;2023-11-21T15:10:47;12.30;;;11.90;;
8476;SDS011;4275;42.854;23.222;2023-11-21T15:13:18;13.37;;;12.97;;
8476;SDS011;4275;42.854;23.222;2023-11-21T15:15:46;14.20;;;13.70;;
8476;SDS011;4275;42.854;23.222;2023-11-21T15:18:12;14.10;;;13.60;;
8476;SDS011;4275;42.854;23.222;2023-11-21T15:20:39;14.60;;;14.10;;
8476;SDS011;4275;42.854;23.222;2023-11-21T15:23:07;11.90;;;11.50;;
8476;SDS011;4275;42.854;23.222;2023-11-21T15:25:39;10.83;;;10.53;;
8476;SDS011;4275;42.854;23.222;2023-11-21T15:28:06;12.30;;;11.90;;
8476;SDS011;4275;42.854;23.222;2023-11-21T15:30:34;12.07;;;11.67;;
8476;SDS011;4275;42.854;23.222;2023-11-21T15:33:06;11.30;;;11.00;;
8476;SDS011;4275;42.854;23.222;2023-11-21T15:35:39;9.93;;;9.63;;
8476;SDS011;4275;42.854;23.222;2023-11-21T15:51:52;9.77;;;9.47;;
8476;SDS011;4275;42.854;23.222;2023-11-21T15:54:47;10.70;;;10.40;;
8476;SDS011;4275;42.854;23.222;2023-11-21T16:00:45;13.67;;;13.27;;
8476;SDS011;4275;42.854;23.222;2023-11-21T16:03:19;15.17;;;14.67;;
8476;SDS011;4275;42.854;23.222;2023-11-21T16:30:51;17.77;;;17.07;;
8476;SDS011;4275;42.854;23.222;2023-11-21T16:36:34;15.97;;;15.37;;
8476;SDS011;4275;42.854;23.222;2023-11-21T16:39:22;15.67;;;15.17;;
8476;SDS011;4275;42.854;23.222;2023-11-21T16:41:54;15.73;;;15.23;;
8476;SDS011;4275;42.854;23.222;2023-11-21T16:44:27;14.70;;;14.20;;
8476;SDS011;4275;42.854;23.222;2023-11-21T16:47:06;14.33;;;13.83;;
8476;SDS011;4275;42.854;23.222;2023-11-21T16:49:39;13.80;;;13.40;;
8476;SDS011;4275;42.854;23.222;2023-11-21T16:52:14;13.93;;;13.53;;
8476;SDS011;4275;42.854;23.222;2023-11-21T16:54:53;12.40;;;12.00;;
8476;SDS011;4275;42.854;23.222;2023-11-21T16:57:35;12.33;;;11.93;;
8476;SDS011;4275;42.854;23.222;2023-11-21T17:00:15;11.10;;;10.80;;
8476;SDS011;4275;42.854;23.222;2023-11-21T17:02:52;10.13;;;9.83;;
8476;SDS011;4275;42.854;23.222;2023-11-21T17:05:22;10.00;;;9.70;;
8476;SDS011;4275;42.854;23.222;2023-11-21T17:07:49;12.50;;;12.10;;
8476;SDS011;4275;42.854;23.222;2023-11-21T17:10:17;14.40;;;13.90;;
8476;SDS011;4275;42.854;23.222;2023-11-21T17:12:45;16.30;;;15.70;;
8476;SDS011;4275;42.854;23.222;2023-11-21T17:15:12;16.37;;;15.77;;
8476;SDS011;4275;42.854;23.222;2023-11-21T17:17:39;17.83;;;17.03;;
8476;SDS011;4275;42.854;23.222;2023-11-21T17:20:08;18.40;;;17.60;;
8476;SDS011;4275;42.854;23.222;2023-11-21T17:22:36;18.53;;;17.63;;
8476;SDS011;4275;42.854;23.222;2023-11-21T17:25:05;18.83;;;17.93;;
8476;SDS011;4275;42.854;23.222;2023-11-21T17:27:34;20.33;;;19.33;;
8476;SDS011;4275;42.854;23.222;2023-11-21T17:30:01;20.83;;;19.73;;
8476;SDS011;4275;42.854;23.222;2023-11-21T17:32:27;20.70;;;19.60;;
8476;SDS011;4275;42.854;23.222;2023-11-21T17:34:54;20.63;;;19.53;;
8476;SDS011;4275;42.854;23.222;2023-11-21T17:37:23;20.63;;;19.57;;
8476;SDS011;4275;42.854;23.222;2023-11-21T17:39:50;20.33;;;19.27;;
8476;SDS011;4275;42.854;23.222;2023-11-21T17:42:17;20.60;;;19.50;;
8476;SDS011;4275;42.854;23.222;2023-11-21T17:44:44;20.33;;;19.23;;
8476;SDS011;4275;42.854;23.222;2023-11-21T17:47:11;20.80;;;19.60;;
8476;SDS011;4275;42.854;23.222;2023-11-21T17:49:38;20.90;;;19.70;;
8476;SDS011;4275;42.854;23.222;2023-11-21T17:52:05;20.13;;;19.02;;
8476;SDS011;4275;42.854;23.222;2023-11-21T17:54:34;20.70;;;19.60;;
8476;SDS011;4275;42.854;23.222;2023-11-21T17:57:05;20.90;;;19.80;;
8476;SDS011;4275;42.854;23.222;2023-11-21T17:59:33;20.20;;;19.20;;
8476;SDS011;4275;42.854;23.222;2023-11-21T18:02:00;20.87;;;19.77;;
8476;SDS011;4275;42.854;23.222;2023-11-21T18:04:27;20.33;;;19.23;;
8476;SDS011;4275;42.854;23.222;2023-11-21T18:06:55;20.93;;;19.83;;
8476;SDS011;4275;42.854;23.222;2023-11-21T18:09:23;20.30;;;19.20;;
8476;SDS011;4275;42.854;23.222;2023-11-21T18:11:51;20.67;;;19.57;;
8476;SDS011;4275;42.854;23.222;2023-11-21T18:14:18;20.30;;;19.20;;
8476;SDS011;4275;42.854;23.222;2023-11-21T18:16:46;20.80;;;19.70;;
8476;SDS011;4275;42.854;23.222;2023-11-21T18:19:13;19.50;;;18.40;;
8476;SDS011;4275;42.854;23.222;2023-11-21T18:21:40;20.10;;;19.00;;